Time;durP1;ratioP1;P1;durP2;ratioP2;P2;SDS_P1;SDS_P2;PMS_P1;PMS_P2;Temp;Humidity;BMP_temperature;BMP_pressure;BME280_temperature;BME280_humidity;BME280_pressure;Samples;Min_cycle;Max_cycle;Signal;HPM_P1;HPM_P2
2022/11/29 00:00:39;;;;;;;62.27;32.80;;;4.00;99.90;;;;;;5023912;28;20272;-71
2022/11/29 00:03:04;;;;;;;56.13;31.23;;;4.00;99.90;;;;;;5027688;28;20732;-71
2022/11/29 00:05:34;;;;;;;54.17;32.07;;;4.00;99.90;;;;;;5031725;28;20210;-71
2022/11/29 00:07:59;;;;;;;56.13;30.70;;;4.00;99.90;;;;;;5025727;28;20216;-70
2022/11/29 00:10:25;;;;;;;56.40;30.50;;;4.00;99.90;;;;;;5031263;28;20215;-71
2022/11/29 00:12:50;;;;;;;54.27;28.40;;;4.00;99.90;;;;;;5024959;28;20210;-71
2022/11/29 00:15:16;;;;;;;53.30;29.10;;;4.00;99.90;;;;;;5027586;28;20190;-68
2022/11/29 00:17:42;;;;;;;62.73;32.13;;;4.00;99.90;;;;;;5029276;28;20179;-68
2022/11/29 00:20:11;;;;;;;52.40;29.30;;;4.00;99.90;;;;;;5024587;28;20577;-71
2022/11/29 00:22:37;;;;;;;51.03;28.87;;;4.00;99.90;;;;;;5026316;28;20292;-69
2022/11/29 00:25:04;;;;;;;52.97;27.23;;;4.10;99.90;;;;;;5026114;28;20223;-69
2022/11/29 00:27:30;;;;;;;48.53;26.97;;;4.10;99.90;;;;;;5023014;28;20294;-71
2022/11/29 00:29:55;;;;;;;51.03;28.37;;;4.10;99.90;;;;;;5023948;28;20260;-71
2022/11/29 00:32:21;;;;;;;47.07;26.93;;;4.00;99.90;;;;;;5030641;28;20217;-71
2022/11/29 00:34:47;;;;;;;51.53;26.87;;;4.00;99.90;;;;;;5021302;28;20202;-71
2022/11/29 00:37:13;;;;;;;51.57;26.93;;;4.00;99.90;;;;;;5027013;28;20215;-71
2022/11/29 00:39:39;;;;;;;46.43;26.07;;;4.00;99.90;;;;;;5024732;28;20679;-71
2022/11/29 00:42:05;;;;;;;44.43;26.30;;;4.00;99.90;;;;;;5026073;28;20208;-70
2022/11/29 00:44:31;;;;;;;45.97;26.40;;;4.00;99.90;;;;;;5030215;28;20236;-69
2022/11/29 00:46:56;;;;;;;46.80;25.70;;;4.00;99.90;;;;;;5022867;28;20611;-69
2022/11/29 00:49:22;;;;;;;51.03;26.90;;;4.00;99.90;;;;;;5029951;28;20294;-69
2022/11/29 00:51:48;;;;;;;47.27;26.13;;;4.00;99.90;;;;;;5026420;28;20747;-69
2022/11/29 00:54:14;;;;;;;43.13;24.03;;;4.00;99.90;;;;;;5024105;28;20221;-70
2022/11/29 00:56:39;;;;;;;43.13;24.57;;;4.00;99.90;;;;;;5025906;28;20180;-69
2022/11/29 00:59:05;;;;;;;43.00;25.00;;;3.90;99.90;;;;;;5028197;28;20242;-68
2022/11/29 01:01:30;;;;;;;47.70;25.20;;;4.00;99.90;;;;;;5022911;28;20627;-69
2022/11/29 01:03:56;;;;;;;46.00;25.20;;;4.00;99.90;;;;;;5025953;28;20270;-69
2022/11/29 01:06:22;;;;;;;45.20;25.63;;;3.90;99.90;;;;;;5028294;28;20182;-69
2022/11/29 01:08:48;;;;;;;47.07;25.10;;;3.90;99.90;;;;;;5024497;28;20179;-69
2022/11/29 01:11:23;;;;;;;50.13;26.27;;;3.90;99.90;;;;;;5027300;28;20317;-69
2022/11/29 01:13:52;;;;;;;49.17;25.87;;;3.90;99.90;;;;;;5021951;28;20205;-69
2022/11/29 01:16:19;;;;;;;46.83;25.70;;;3.90;99.90;;;;;;5026213;28;20255;-69
2022/11/29 01:18:44;;;;;;;45.13;26.13;;;3.90;99.90;;;;;;5026153;28;20210;-69
2022/11/29 01:21:16;;;;;;;50.27;25.63;;;3.90;99.90;;;;;;5022788;28;20190;-69
2022/11/29 01:23:43;;;;;;;43.00;24.03;;;3.90;99.90;;;;;;5025508;28;20203;-69
2022/11/29 01:26:15;;;;;;;44.93;24.33;;;3.90;99.90;;;;;;5025094;28;20313;-69
2022/11/29 01:28:41;;;;;;;48.87;27.70;;;3.90;99.90;;;;;;5021439;28;20232;-69
2022/11/29 01:31:12;;;;;;;43.80;25.23;;;3.90;99.90;;;;;;5027078;28;20279;-70
2022/11/29 01:33:38;;;;;;;49.10;25.77;;;3.90;99.90;;;;;;5024127;28;20691;-69
2022/11/29 01:36:05;;;;;;;48.77;25.63;;;4.00;99.90;;;;;;5022387;28;20195;-69
2022/11/29 01:38:31;;;;;;;46.73;24.90;;;3.90;99.90;;;;;;5027531;28;20216;-69
2022/11/29 01:41:04;;;;;;;45.50;25.80;;;3.90;99.90;;;;;;5021574;28;20623;-69
2022/11/29 01:43:30;;;;;;;43.83;24.37;;;3.90;99.90;;;;;;5026390;28;20219;-69
2022/11/29 01:45:56;;;;;;;47.50;26.30;;;3.90;99.90;;;;;;5024463;28;20298;-69
2022/11/29 01:48:29;;;;;;;45.97;26.03;;;3.90;99.90;;;;;;5027181;28;20201;-71
2022/11/29 01:50:58;;;;;;;53.67;27.53;;;3.90;99.90;;;;;;5026296;28;20575;-69
2022/11/29 01:53:23;;;;;;;47.10;25.80;;;3.90;99.90;;;;;;5024439;28;20214;-69
2022/11/29 01:55:59;;;;;;;47.53;26.47;;;3.90;99.90;;;;;;5019971;28;20211;-69
2022/11/29 01:58:25;;;;;;;45.53;26.90;;;3.90;99.90;;;;;;5026930;28;20229;-69
2022/11/29 02:00:51;;;;;;;46.40;25.20;;;4.00;99.90;;;;;;5021239;28;20221;-69
2022/11/29 02:03:17;;;;;;;44.33;24.87;;;4.00;99.90;;;;;;5025665;28;20199;-71
2022/11/29 02:05:49;;;;;;;46.63;25.20;;;3.90;99.90;;;;;;5027865;28;20681;-69
2022/11/29 02:08:22;;;;;;;45.23;25.77;;;3.90;99.90;;;;;;5024370;28;20262;-69
2022/11/29 02:10:53;;;;;;;42.87;25.30;;;3.90;99.90;;;;;;5024872;28;20693;-69
2022/11/29 02:13:39;;;;;;;48.03;25.37;;;3.90;99.90;;;;;;5027764;28;20202;-69
2022/11/29 02:18:53;;;;;;;50.40;26.07;;;4.00;99.90;;;;;;5046905;22;20251;-73
2022/11/29 02:21:27;;;;;;;51.17;26.43;;;4.00;99.90;;;;;;5024198;28;20181;-73
2022/11/29 02:24:10;;;;;;;49.07;24.83;;;3.90;99.90;;;;;;5031684;28;20585;-72
2022/11/29 02:27:07;;;;;;;47.03;26.23;;;3.90;99.90;;;;;;5023533;28;20215;-72
2022/11/29 02:30:03;;;;;;;44.70;25.57;;;4.00;99.90;;;;;;5022937;28;20307;-71
2022/11/29 02:32:38;;;;;;;48.63;25.37;;;3.90;99.90;;;;;;5019260;28;20207;-72
2022/11/29 02:35:18;;;;;;;48.27;26.10;;;4.00;99.90;;;;;;5024190;28;20233;-72
2022/11/29 02:38:03;;;;;;;49.07;25.37;;;4.00;99.90;;;;;;5024196;28;20215;-75
2022/11/29 02:40:44;;;;;;;46.53;25.83;;;4.00;99.90;;;;;;5022438;28;20218;-71
2022/11/29 02:43:19;;;;;;;51.20;26.63;;;4.00;99.90;;;;;;5021739;28;20231;-72
2022/11/29 02:46:02;;;;;;;44.50;25.73;;;4.00;99.90;;;;;;5018144;28;20227;-72
2022/11/29 02:48:55;;;;;;;46.30;26.37;;;4.00;99.90;;;;;;5019425;28;20414;-71
2022/11/29 02:51:24;;;;;;;47.90;25.50;;;4.00;99.90;;;;;;5025568;28;20324;-71
2022/11/29 02:54:05;;;;;;;48.13;25.10;;;4.00;99.90;;;;;;5022718;28;20214;-71
2022/11/29 02:56:41;;;;;;;46.60;25.77;;;4.00;99.90;;;;;;5022771;28;20229;-73
2022/11/29 02:59:26;;;;;;;48.07;25.10;;;4.00;99.90;;;;;;5025643;28;20228;-74
2022/11/29 03:02:06;;;;;;;45.67;25.60;;;4.10;99.90;;;;;;5021062;28;20703;-72
2022/11/29 03:04:42;;;;;;;48.30;26.13;;;4.00;99.90;;;;;;5025635;28;20225;-72
2022/11/29 03:07:34;;;;;;;43.20;24.53;;;4.00;99.90;;;;;;5027679;28;20298;-72
2022/11/29 03:10:11;;;;;;;48.80;26.57;;;4.10;99.90;;;;;;5022037;28;20285;-72
2022/11/29 03:12:39;;;;;;;45.77;25.43;;;4.10;99.90;;;;;;5027163;28;20212;-72
2022/11/29 03:15:27;;;;;;;49.77;26.67;;;4.10;99.90;;;;;;5026907;28;20182;-72
2022/11/29 03:18:35;;;;;;;47.77;25.97;;;4.00;99.90;;;;;;5023722;28;20248;-69
2022/11/29 03:21:07;;;;;;;47.97;27.10;;;4.10;99.90;;;;;;5010597;28;20214;-72
2022/11/29 03:23:50;;;;;;;51.17;27.63;;;4.00;99.90;;;;;;5023808;28;20210;-72
2022/11/29 03:26:44;;;;;;;47.30;27.23;;;4.00;99.90;;;;;;5025849;28;20660;-72
2022/11/29 03:29:37;;;;;;;48.90;27.10;;;4.00;99.90;;;;;;5023972;28;20229;-70
2022/11/29 03:32:25;;;;;;;48.77;26.77;;;4.00;99.90;;;;;;5022159;28;20304;-71
2022/11/29 03:34:58;;;;;;;51.33;27.33;;;4.00;99.90;;;;;;5019593;28;20216;-71
2022/11/29 03:37:46;;;;;;;49.47;27.23;;;4.00;99.90;;;;;;5021331;28;20213;-72
2022/11/29 03:40:15;;;;;;;45.13;25.67;;;4.00;99.90;;;;;;5020389;28;20235;-72
2022/11/29 03:42:50;;;;;;;51.70;28.20;;;4.00;99.90;;;;;;5022798;28;20209;-71
2022/11/29 03:45:23;;;;;;;48.70;27.13;;;4.00;99.90;;;;;;5024564;28;20251;-71
2022/11/29 03:48:10;;;;;;;45.43;26.87;;;3.90;99.90;;;;;;5027975;28;20329;-71
2022/11/29 03:50:49;;;;;;;48.07;27.93;;;4.00;99.90;;;;;;5024500;28;20251;-71
2022/11/29 03:53:31;;;;;;;48.60;26.63;;;3.90;99.90;;;;;;5021071;28;20208;-71
2022/11/29 03:56:03;;;;;;;50.73;29.07;;;3.90;99.90;;;;;;5019444;28;20209;-72
2022/11/29 03:58:58;;;;;;;52.60;27.73;;;3.90;99.90;;;;;;5020978;28;20289;-73
2022/11/29 04:01:33;;;;;;;53.67;27.53;;;3.90;99.90;;;;;;5023053;28;20652;-70
2022/11/29 04:04:34;;;;;;;52.70;28.80;;;3.90;99.90;;;;;;5022136;28;20294;-71
2022/11/29 04:07:23;;;;;;;51.33;27.73;;;3.90;99.90;;;;;;5010586;28;20263;-73
2022/11/29 04:10:16;;;;;;;51.43;28.87;;;3.80;99.90;;;;;;5022340;28;20643;-71
2022/11/29 04:13:29;;;;;;;49.37;28.93;;;3.90;99.90;;;;;;5024019;28;20259;-71
2022/11/29 04:16:09;;;;;;;52.60;29.83;;;3.90;99.90;;;;;;4987888;28;20303;-71
2022/11/29 04:18:44;;;;;;;54.03;28.83;;;3.80;99.90;;;;;;5024217;28;20227;-71
2022/11/29 04:21:25;;;;;;;55.17;28.77;;;3.80;99.90;;;;;;5020221;28;20222;-72
2022/11/29 04:24:15;;;;;;;60.07;29.77;;;3.80;99.90;;;;;;5020670;28;20181;-72
2022/11/29 04:27:11;;;;;;;50.33;27.80;;;3.80;99.90;;;;;;5024446;28;20218;-72
2022/11/29 04:29:41;;;;;;;57.30;29.87;;;3.80;99.90;;;;;;4996178;28;20226;-72
2022/11/29 04:32:07;;;;;;;53.47;28.70;;;3.80;99.90;;;;;;5019492;28;20271;-72
2022/11/29 04:35:13;;;;;;;54.27;30.10;;;3.80;99.90;;;;;;5024932;28;20216;-71
2022/11/29 04:37:53;;;;;;;55.23;29.33;;;3.80;99.90;;;;;;5022322;28;20233;-72
2022/11/29 04:40:53;;;;;;;48.43;26.83;;;3.80;99.90;;;;;;5018824;28;20293;-70
2022/11/29 04:43:25;;;;;;;51.90;28.67;;;3.80;99.90;;;;;;5022203;28;20225;-72
2022/11/29 04:46:05;;;;;;;52.40;29.37;;;3.80;99.90;;;;;;5019069;28;20685;-72
2022/11/29 04:49:05;;;;;;;53.87;28.90;;;3.80;99.90;;;;;;5024239;28;20627;-72
2022/11/29 04:51:57;;;;;;;51.33;27.83;;;3.80;99.90;;;;;;5020258;28;20237;-73
2022/11/29 04:54:39;;;;;;;54.27;28.73;;;3.80;99.90;;;;;;5022308;28;20283;-71
2022/11/29 04:57:16;;;;;;;56.87;30.23;;;3.90;99.90;;;;;;5021002;28;20197;-72
2022/11/29 04:59:53;;;;;;;49.10;28.87;;;3.80;99.90;;;;;;5023209;28;20207;-72
2022/11/29 05:02:52;;;;;;;55.10;29.00;;;3.80;99.90;;;;;;5025280;28;20214;-72
2022/11/29 05:05:50;;;;;;;50.90;27.47;;;3.80;99.90;;;;;;5021334;28;20227;-72
2022/11/29 05:08:29;;;;;;;50.00;28.10;;;3.90;99.90;;;;;;5021187;28;20215;-74
2022/11/29 05:11:22;;;;;;;52.63;27.63;;;3.80;99.90;;;;;;5018824;28;20212;-72
2022/11/29 05:13:58;;;;;;;52.23;29.60;;;3.90;99.90;;;;;;5022454;28;20249;-73
2022/11/29 05:16:59;;;;;;;55.43;29.53;;;3.90;99.90;;;;;;5022476;28;20691;-72
2022/11/29 05:20:10;;;;;;;50.27;27.20;;;3.80;99.90;;;;;;5019656;28;20214;-72
2022/11/29 05:23:11;;;;;;;50.17;27.83;;;3.80;99.90;;;;;;5020077;28;20679;-71
2022/11/29 05:25:53;;;;;;;52.90;27.23;;;3.90;99.90;;;;;;4996194;28;20299;-72
2022/11/29 05:28:37;;;;;;;47.90;28.00;;;3.90;99.90;;;;;;5019807;28;20256;-71
2022/11/29 05:31:05;;;;;;;54.93;28.30;;;3.90;99.90;;;;;;5025497;28;20226;-72
2022/11/29 05:33:52;;;;;;;52.53;27.53;;;3.90;99.90;;;;;;5022839;28;20693;-71
2022/11/29 05:36:37;;;;;;;51.40;28.40;;;3.80;99.90;;;;;;5027344;28;20670;-72
2022/11/29 05:39:33;;;;;;;54.47;27.83;;;3.80;99.90;;;;;;5024271;28;20186;-73
2022/11/29 05:42:19;;;;;;;54.70;29.13;;;3.90;99.90;;;;;;5024065;28;20218;-71
2022/11/29 05:44:49;;;;;;;49.13;26.93;;;3.90;99.90;;;;;;5021303;28;20288;-72
2022/11/29 05:47:25;;;;;;;52.77;27.97;;;3.90;99.90;;;;;;5024938;28;20220;-72
2022/11/29 05:50:29;;;;;;;55.73;27.70;;;3.90;99.90;;;;;;5022964;28;20234;-74
2022/11/29 05:53:15;;;;;;;52.40;27.87;;;3.90;99.90;;;;;;4958090;28;20287;-72
2022/11/29 05:55:50;;;;;;;54.37;27.93;;;3.90;99.90;;;;;;5023681;28;20279;-72
2022/11/29 05:58:27;;;;;;;54.13;28.27;;;3.90;99.90;;;;;;5028531;28;20226;-71
2022/11/29 06:01:24;;;;;;;52.87;27.30;;;3.90;99.90;;;;;;5023868;28;20211;-72
2022/11/29 06:03:59;;;;;;;47.03;26.57;;;3.90;99.90;;;;;;4993569;28;20215;-71
2022/11/29 06:06:58;;;;;;;49.50;27.43;;;3.90;99.90;;;;;;5026406;28;20172;-71
2022/11/29 06:09:40;;;;;;;51.07;27.90;;;4.00;99.90;;;;;;5009918;28;20192;-71
2022/11/29 06:12:15;;;;;;;49.00;27.77;;;4.00;99.90;;;;;;5021944;28;20222;-72
2022/11/29 06:14:40;;;;;;;55.10;27.47;;;4.00;99.90;;;;;;5029265;28;20657;-72
2022/11/29 06:17:09;;;;;;;48.37;29.03;;;4.00;99.90;;;;;;5023120;28;20236;-73
2022/11/29 06:19:56;;;;;;;51.23;27.60;;;3.90;99.90;;;;;;5022255;28;20234;-73
2022/11/29 06:22:33;;;;;;;45.67;26.23;;;3.90;99.90;;;;;;5022914;28;20216;-72
2022/11/29 06:25:11;;;;;;;49.33;27.70;;;4.00;99.90;;;;;;5023140;28;20207;-72
2022/11/29 06:27:53;;;;;;;54.10;28.27;;;4.00;99.90;;;;;;5023355;28;20232;-73
2022/11/29 06:30:26;;;;;;;54.17;28.00;;;3.90;99.90;;;;;;5021339;28;20273;-71
2022/11/29 06:33:22;;;;;;;49.20;26.80;;;3.90;99.90;;;;;;5021324;28;20191;-72
2022/11/29 06:36:09;;;;;;;46.43;25.27;;;4.00;99.90;;;;;;5005070;28;20265;-72
2022/11/29 06:38:35;;;;;;;50.93;28.00;;;3.90;99.90;;;;;;5020763;28;20248;-71
2022/11/29 06:41:01;;;;;;;50.77;27.50;;;4.00;99.90;;;;;;5030915;28;20229;-72
2022/11/29 06:43:27;;;;;;;44.70;25.67;;;3.90;99.90;;;;;;5032437;28;20215;-72
2022/11/29 06:46:19;;;;;;;47.53;27.27;;;3.90;99.90;;;;;;5022641;28;20573;-69
2022/11/29 06:49:08;;;;;;;51.07;27.80;;;3.90;99.90;;;;;;5015868;28;20215;-72
2022/11/29 06:51:58;;;;;;;49.27;27.47;;;4.00;99.90;;;;;;5022598;28;20214;-71
2022/11/29 06:54:30;;;;;;;48.83;27.57;;;4.00;99.90;;;;;;5028795;28;20180;-69
2022/11/29 06:57:21;;;;;;;49.83;26.23;;;4.00;99.90;;;;;;5027057;28;20208;-72
2022/11/29 06:59:49;;;;;;;46.10;28.10;;;4.00;99.90;;;;;;5027486;28;20562;-70
2022/11/29 07:02:30;;;;;;;52.03;27.40;;;3.90;99.90;;;;;;5029794;28;20223;-72
2022/11/29 07:05:11;;;;;;;51.87;27.13;;;4.00;99.90;;;;;;5024341;28;20226;-72
2022/11/29 07:07:38;;;;;;;47.27;25.43;;;4.00;99.90;;;;;;5027285;28;20229;-71
2022/11/29 07:10:06;;;;;;;46.70;26.83;;;4.00;99.90;;;;;;5026820;28;20236;-73
2022/11/29 07:12:32;;;;;;;48.37;25.97;;;4.00;99.90;;;;;;5025429;28;20215;-72
2022/11/29 07:14:57;;;;;;;47.30;25.90;;;4.00;99.90;;;;;;5030485;28;20241;-72
2022/11/29 07:17:34;;;;;;;49.27;26.73;;;4.00;99.90;;;;;;5031533;28;20220;-70
2022/11/29 07:20:23;;;;;;;49.23;26.73;;;4.00;99.90;;;;;;5022217;28;20220;-72
2022/11/29 07:23:02;;;;;;;47.77;26.60;;;4.00;99.90;;;;;;5026939;28;20324;-74
2022/11/29 07:25:40;;;;;;;52.50;27.80;;;4.00;99.90;;;;;;5027376;28;20649;-72
2022/11/29 07:28:12;;;;;;;49.23;25.47;;;4.00;99.90;;;;;;5024632;28;20213;-72
2022/11/29 07:30:53;;;;;;;46.07;25.87;;;4.00;99.90;;;;;;5025679;28;20221;-72
2022/11/29 07:34:02;;;;;;;50.90;27.27;;;3.90;99.90;;;;;;5024882;28;20187;-73
2022/11/29 07:37:03;;;;;;;51.17;27.43;;;4.00;99.90;;;;;;5029698;28;20371;-72
2022/11/29 07:39:52;;;;;;;53.73;26.63;;;4.00;99.90;;;;;;5016001;28;20231;-71
2022/11/29 07:42:33;;;;;;;47.83;26.13;;;4.00;99.90;;;;;;5028553;28;20291;-72
2022/11/29 07:45:01;;;;;;;50.80;26.87;;;4.10;99.90;;;;;;5023588;28;20265;-72
2022/11/29 07:47:27;;;;;;;49.47;26.67;;;4.10;99.90;;;;;;5023589;28;20715;-73
2022/11/29 07:49:52;;;;;;;50.67;26.77;;;4.00;99.90;;;;;;5028036;28;20246;-73
2022/11/29 07:52:18;;;;;;;49.40;26.17;;;4.10;99.90;;;;;;5026296;28;20220;-73
2022/11/29 07:54:43;;;;;;;54.73;28.90;;;4.10;99.90;;;;;;5027651;28;20716;-73
2022/11/29 07:57:09;;;;;;;42.87;25.10;;;4.10;99.90;;;;;;5026988;28;20201;-73
2022/11/29 07:59:34;;;;;;;46.57;25.77;;;4.10;99.90;;;;;;5023405;28;20597;-71
2022/11/29 08:02:01;;;;;;;53.27;26.63;;;4.10;99.90;;;;;;5021247;28;20295;-73
2022/11/29 08:04:26;;;;;;;48.70;26.63;;;4.10;99.90;;;;;;5027220;28;20263;-72
2022/11/29 08:06:52;;;;;;;45.67;26.37;;;4.10;99.90;;;;;;5021557;28;20730;-72
2022/11/29 08:09:18;;;;;;;44.87;25.60;;;4.10;99.90;;;;;;5015730;28;20236;-74
2022/11/29 08:11:43;;;;;;;48.63;27.33;;;4.10;99.90;;;;;;5024655;28;20292;-72
2022/11/29 08:14:09;;;;;;;44.90;26.53;;;4.10;99.90;;;;;;5021037;28;20218;-72
2022/11/29 08:19:10;;;;;;;50.33;25.63;;;4.10;99.90;;;;;;5047191;28;20224;-68
2022/11/29 08:21:36;;;;;;;43.53;26.10;;;4.10;99.90;;;;;;5066691;28;20275;-69
2022/11/29 08:24:01;;;;;;;50.93;26.87;;;4.10;99.90;;;;;;5052032;28;20200;-69
2022/11/29 08:26:28;;;;;;;44.83;26.33;;;4.20;99.90;;;;;;5050275;28;20293;-69
2022/11/29 08:28:54;;;;;;;45.73;26.53;;;4.20;99.90;;;;;;5048172;28;20213;-69
2022/11/29 08:31:20;;;;;;;51.40;28.20;;;4.20;99.90;;;;;;5046076;28;20596;-69
2022/11/29 08:33:46;;;;;;;48.33;26.37;;;4.30;99.90;;;;;;5050664;28;20238;-69
2022/11/29 08:36:14;;;;;;;50.60;26.50;;;4.30;99.90;;;;;;5042729;28;20194;-69
2022/11/29 08:38:40;;;;;;;44.90;26.43;;;4.30;99.90;;;;;;5049032;28;20234;-71
2022/11/29 08:41:09;;;;;;;50.97;26.20;;;4.40;99.90;;;;;;5050428;28;20755;-69
2022/11/29 08:43:35;;;;;;;48.40;26.77;;;4.30;99.90;;;;;;5046644;28;20218;-70
2022/11/29 08:46:01;;;;;;;43.47;25.23;;;4.40;99.90;;;;;;5047737;28;20284;-69
2022/11/29 08:48:27;;;;;;;48.00;25.30;;;4.40;99.90;;;;;;5048074;28;20213;-70
2022/11/29 08:50:54;;;;;;;47.20;25.30;;;4.40;99.90;;;;;;5046510;28;20635;-69
2022/11/29 08:56:17;;;;;;;45.27;25.13;;;4.40;99.90;;;;;;5044702;28;20233;-70
2022/11/29 08:58:44;;;;;;;50.30;26.80;;;4.40;99.90;;;;;;5047028;28;20222;-69
2022/11/29 09:01:13;;;;;;;45.03;25.40;;;4.30;99.90;;;;;;5049385;28;20219;-70
2022/11/29 09:06:23;;;;;;;47.93;25.60;;;4.40;99.90;;;;;;5048218;28;20190;-70
2022/11/29 09:08:48;;;;;;;48.97;26.90;;;4.40;99.90;;;;;;5051355;28;20200;-70
2022/11/29 09:11:18;;;;;;;49.60;25.37;;;4.50;99.90;;;;;;5043733;28;20212;-69
2022/11/29 09:13:46;;;;;;;48.87;26.47;;;4.60;99.90;;;;;;5049279;28;20210;-69
2022/11/29 09:16:14;;;;;;;44.40;25.57;;;4.60;99.90;;;;;;5044783;28;20290;-70
2022/11/29 09:18:41;;;;;;;43.43;24.47;;;4.70;99.90;;;;;;5047156;28;20222;-70
2022/11/29 09:21:08;;;;;;;46.93;25.20;;;4.70;99.90;;;;;;5049550;28;20643;-69
2022/11/29 09:23:39;;;;;;;46.83;26.37;;;4.80;99.90;;;;;;5045192;28;20656;-70
2022/11/29 09:26:06;;;;;;;43.13;24.17;;;4.70;99.90;;;;;;5043981;28;20229;-70
2022/11/29 09:28:32;;;;;;;45.43;25.37;;;4.80;99.90;;;;;;5050440;28;20551;-69
2022/11/29 09:31:06;;;;;;;46.20;24.67;;;4.80;99.90;;;;;;5048369;28;20215;-70
2022/11/29 09:33:31;;;;;;;47.83;25.67;;;4.80;99.90;;;;;;5046063;28;20293;-69
2022/11/29 09:35:58;;;;;;;48.73;26.40;;;4.80;99.90;;;;;;5049644;28;20258;-69
2022/11/29 09:38:24;;;;;;;46.07;25.67;;;4.80;99.90;;;;;;5044844;28;20208;-70
2022/11/29 09:41:28;;;;;;;43.27;24.77;;;4.80;99.90;;;;;;5048693;28;20261;-70
2022/11/29 09:44:15;;;;;;;49.17;25.30;;;4.90;99.90;;;;;;5046264;28;20206;-69
2022/11/29 09:46:55;;;;;;;48.47;24.60;;;4.90;99.90;;;;;;5046232;28;20223;-70
2022/11/29 09:49:37;;;;;;;43.73;25.17;;;4.90;99.90;;;;;;5044987;28;20210;-69
2022/11/29 09:52:14;;;;;;;42.93;23.53;;;4.90;99.90;;;;;;5044402;28;20211;-69
2022/11/29 09:54:54;;;;;;;45.93;25.73;;;5.00;99.90;;;;;;5048118;28;20218;-69
2022/11/29 09:57:22;;;;;;;46.47;24.63;;;5.00;99.90;;;;;;5041800;28;20585;-69
2022/11/29 09:59:53;;;;;;;42.37;24.57;;;5.00;99.90;;;;;;5047370;28;20203;-69
2022/11/29 10:02:31;;;;;;;45.20;25.53;;;5.10;99.90;;;;;;5049726;28;20215;-70
2022/11/29 10:05:12;;;;;;;49.77;24.07;;;5.20;99.90;;;;;;5044246;28;20226;-69
2022/11/29 10:07:48;;;;;;;47.77;24.53;;;5.10;99.90;;;;;;5046803;28;20207;-70
2022/11/29 10:10:19;;;;;;;45.87;24.57;;;5.10;99.90;;;;;;5056314;28;20195;-70
2022/11/29 10:12:52;;;;;;;48.50;23.90;;;5.20;99.90;;;;;;5048133;28;20203;-69
2022/11/29 10:15:46;;;;;;;45.23;24.50;;;5.20;99.90;;;;;;5048962;28;20175;-69
2022/11/29 10:18:31;;;;;;;43.97;23.73;;;5.10;99.90;;;;;;5035879;28;20215;-70
2022/11/29 10:21:03;;;;;;;47.93;24.73;;;5.20;99.90;;;;;;5048130;28;20176;-70
2022/11/29 10:23:37;;;;;;;43.73;25.33;;;5.10;99.90;;;;;;5047217;28;20208;-69
2022/11/29 10:26:06;;;;;;;50.57;26.67;;;5.10;99.90;;;;;;5043293;28;20231;-69
2022/11/29 10:28:35;;;;;;;43.10;24.47;;;5.10;99.90;;;;;;5048479;28;20215;-69
2022/11/29 10:31:21;;;;;;;44.33;24.10;;;5.20;99.90;;;;;;5042389;28;20226;-70
2022/11/29 10:33:48;;;;;;;46.23;25.20;;;5.20;99.90;;;;;;5061966;28;20218;-70
2022/11/29 10:36:28;;;;;;;42.93;24.90;;;5.20;99.90;;;;;;5046228;28;20196;-69
2022/11/29 10:38:58;;;;;;;44.70;26.53;;;5.20;99.90;;;;;;5045917;28;20223;-70
2022/11/29 10:41:24;;;;;;;49.87;25.57;;;5.20;99.90;;;;;;5047638;28;20290;-69
2022/11/29 10:43:53;;;;;;;43.70;24.43;;;5.30;99.90;;;;;;5048385;28;20218;-70
2022/11/29 10:46:34;;;;;;;43.60;23.40;;;5.30;99.90;;;;;;5044112;28;20227;-70
2022/11/29 10:49:03;;;;;;;47.23;25.77;;;5.30;99.90;;;;;;5046092;28;20851;-70
2022/11/29 10:51:30;;;;;;;46.60;25.67;;;5.40;99.90;;;;;;5044308;28;20223;-69
2022/11/29 10:54:01;;;;;;;43.93;24.80;;;5.40;99.90;;;;;;5046520;28;20206;-69
2022/11/29 10:56:34;;;;;;;46.50;25.03;;;5.40;99.90;;;;;;5046394;28;20230;-70
2022/11/29 10:59:05;;;;;;;45.27;25.47;;;5.40;99.90;;;;;;5047979;28;20221;-69
2022/11/29 11:01:32;;;;;;;44.67;25.37;;;5.40;99.90;;;;;;5045208;28;20301;-70
2022/11/29 11:03:59;;;;;;;49.13;27.40;;;5.20;99.90;;;;;;5045164;28;20334;-69
2022/11/29 11:07:05;;;;;;;50.80;25.47;;;5.30;99.90;;;;;;5044451;28;20264;-70
2022/11/29 11:09:33;;;;;;;51.73;26.40;;;5.20;99.90;;;;;;4984068;28;20280;-70
2022/11/29 11:12:02;;;;;;;47.50;25.70;;;5.20;99.90;;;;;;4987981;28;20237;-70
2022/11/29 11:14:30;;;;;;;44.47;24.60;;;5.20;99.90;;;;;;5021920;28;20210;-69
2022/11/29 11:17:31;;;;;;;46.87;24.93;;;5.20;99.90;;;;;;5048627;28;20211;-70
2022/11/29 11:20:19;;;;;;;52.33;27.07;;;5.30;99.90;;;;;;5045867;28;20634;-69
2022/11/29 11:23:00;;;;;;;41.47;24.23;;;5.20;99.90;;;;;;5048323;28;20211;-69
2022/11/29 11:25:27;;;;;;;43.37;24.57;;;5.20;99.90;;;;;;5046161;28;20223;-69
2022/11/29 11:27:54;;;;;;;45.77;25.00;;;5.20;99.90;;;;;;5049943;28;20222;-69
2022/11/29 11:30:22;;;;;;;46.77;26.23;;;5.30;99.90;;;;;;5051280;28;20218;-69
2022/11/29 11:33:06;;;;;;;50.10;26.37;;;5.30;99.90;;;;;;5051863;28;20180;-69
2022/11/29 11:35:32;;;;;;;49.00;26.17;;;5.30;99.90;;;;;;5048019;28;20210;-69
2022/11/29 11:37:58;;;;;;;47.30;25.60;;;5.20;99.90;;;;;;5050818;28;20215;-69
2022/11/29 11:40:29;;;;;;;48.23;26.43;;;5.20;99.90;;;;;;5050674;28;20217;-69
2022/11/29 11:42:58;;;;;;;42.70;24.30;;;5.30;99.90;;;;;;5049990;28;20345;-70
2022/11/29 11:45:33;;;;;;;47.07;26.10;;;5.40;99.90;;;;;;5044604;28;20203;-70
2022/11/29 11:48:04;;;;;;;43.57;24.83;;;5.40;99.90;;;;;;5049031;28;20195;-70
2022/11/29 11:50:33;;;;;;;47.10;25.10;;;5.40;99.90;;;;;;5050885;28;20280;-69
2022/11/29 11:53:17;;;;;;;45.63;24.97;;;5.40;99.90;;;;;;5046616;28;20221;-70
2022/11/29 11:55:52;;;;;;;49.40;26.20;;;5.40;99.90;;;;;;5050212;28;20587;-71
2022/11/29 11:58:22;;;;;;;48.63;25.50;;;5.50;99.90;;;;;;5043051;28;20303;-70
2022/11/29 12:00:53;;;;;;;47.80;26.10;;;5.40;99.90;;;;;;5050857;28;20207;-70
2022/11/29 12:03:37;;;;;;;47.33;26.53;;;5.40;99.90;;;;;;5047860;28;20786;-69
2022/11/29 12:06:30;;;;;;;42.87;25.43;;;5.40;99.90;;;;;;5047717;28;20217;-69
2022/11/29 12:09:05;;;;;;;45.83;26.50;;;5.40;99.90;;;;;;5051169;28;20226;-69
2022/11/29 12:11:40;;;;;;;51.20;27.03;;;5.40;99.90;;;;;;5049141;28;20221;-69
2022/11/29 12:14:06;;;;;;;50.37;26.73;;;5.40;99.90;;;;;;5050406;28;20211;-69
2022/11/29 12:16:37;;;;;;;42.80;26.07;;;5.30;99.90;;;;;;5051147;28;20212;-69
2022/11/29 12:19:19;;;;;;;42.50;24.73;;;5.40;99.90;;;;;;5050106;28;20269;-69
2022/11/29 12:21:51;;;;;;;47.87;27.87;;;5.40;99.90;;;;;;5048933;28;20207;-70
2022/11/29 12:24:43;;;;;;;47.23;25.17;;;5.40;99.90;;;;;;5048402;28;20234;-69
2022/11/29 12:27:13;;;;;;;47.40;25.57;;;5.40;99.90;;;;;;5042673;28;20243;-70
2022/11/29 12:29:39;;;;;;;46.77;26.70;;;5.40;99.90;;;;;;5050687;28;20648;-69
2022/11/29 12:32:29;;;;;;;45.53;25.40;;;5.40;99.90;;;;;;5046751;28;20211;-69
2022/11/29 12:35:15;;;;;;;48.87;26.90;;;5.40;99.90;;;;;;5048242;28;20214;-70
2022/11/29 12:38:15;;;;;;;48.80;27.50;;;5.40;99.90;;;;;;5050176;28;20216;-69
2022/11/29 12:41:23;;;;;;;45.43;25.20;;;5.50;99.90;;;;;;5044248;28;20208;-70
2022/11/29 12:44:04;;;;;;;46.47;26.93;;;5.50;99.90;;;;;;5036482;28;20596;-69
2022/11/29 12:46:31;;;;;;;52.37;26.60;;;5.40;99.90;;;;;;5048483;28;20223;-70
2022/11/29 12:49:30;;;;;;;48.77;27.00;;;5.40;99.90;;;;;;5049525;28;20208;-69
2022/11/29 12:52:15;;;;;;;48.03;26.27;;;5.40;99.90;;;;;;5044715;28;20261;-69
2022/11/29 12:55:06;;;;;;;52.17;27.00;;;5.40;99.90;;;;;;5046579;28;20207;-69
2022/11/29 12:58:17;;;;;;;50.97;26.70;;;5.40;99.90;;;;;;5048815;28;20211;-70
2022/11/29 13:01:09;;;;;;;44.67;24.80;;;5.50;99.90;;;;;;5011808;28;20215;-70
2022/11/29 13:03:54;;;;;;;52.67;28.43;;;5.40;99.90;;;;;;5046766;28;20212;-70
2022/11/29 13:06:45;;;;;;;50.43;26.30;;;5.40;99.90;;;;;;5058045;28;20215;-70
2022/11/29 13:09:17;;;;;;;53.93;27.93;;;5.30;99.90;;;;;;5046043;28;20228;-69
2022/11/29 13:11:49;;;;;;;43.10;25.30;;;5.30;99.90;;;;;;5051524;28;20583;-69
2022/11/29 13:14:25;;;;;;;54.93;27.80;;;5.30;99.90;;;;;;5043518;28;20219;-69
2022/11/29 13:17:00;;;;;;;51.93;26.97;;;5.30;99.90;;;;;;5048986;28;20210;-69
2022/11/29 13:19:49;;;;;;;54.97;28.60;;;5.30;99.90;;;;;;5049221;28;20264;-72
2022/11/29 13:22:31;;;;;;;53.73;28.73;;;5.40;99.90;;;;;;5047962;28;20223;-69
2022/11/29 13:25:00;;;;;;;54.33;29.67;;;5.40;99.90;;;;;;5042371;28;20219;-69
2022/11/29 13:27:37;;;;;;;51.50;28.77;;;5.30;99.90;;;;;;5047434;28;20206;-69
2022/11/29 13:30:04;;;;;;;50.60;27.73;;;5.30;99.90;;;;;;5046453;28;20214;-69
2022/11/29 13:32:42;;;;;;;49.03;28.87;;;5.30;99.90;;;;;;5047613;28;20590;-70